Time;durP1;ratioP1;P1;durP2;ratioP2;P2;SDS_P1;SDS_P2;PMS_P1;PMS_P2;Temp;Humidity;BMP_temperature;BMP_pressure;BME280_temperature;BME280_humidity;BME280_pressure;Samples;Min_cycle;Max_cycle;Signal;HPM_P1;HPM_P2
2022/06/26 00:00:33;;;;;;;4.53;3.20;;;;;;;20.46;100.00;98669.59;4991685;28;20265;-80
2022/06/26 00:03:01;;;;;;;3.30;3.00;;;;;;;20.54;100.00;98670.41;5014299;28;20608;-79
2022/06/26 00:05:30;;;;;;;4.03;3.10;;;;;;;20.51;100.00;98670.78;5028711;28;20201;-80
2022/06/26 00:07:59;;;;;;;3.07;2.83;;;;;;;20.37;100.00;98671.47;5080013;28;20198;-80
2022/06/26 00:10:28;;;;;;;4.33;2.83;;;;;;;20.41;100.00;98674.66;5030710;28;20198;-80
2022/06/26 00:12:58;;;;;;;4.53;3.17;;;;;;;20.35;100.00;98669.94;5024762;28;20209;-79
2022/06/26 00:15:27;;;;;;;5.00;3.33;;;;;;;20.29;100.00;98668.81;5027353;28;20273;-80
2022/06/26 00:17:55;;;;;;;7.67;3.37;;;;;;;20.41;100.00;98666.56;5028061;28;20210;-79
2022/06/26 00:20:24;;;;;;;6.27;3.20;;;;;;;20.43;100.00;98668.09;5023995;28;20703;-80
2022/06/26 00:22:52;;;;;;;4.30;3.30;;;;;;;20.37;100.00;98670.63;5007284;28;20206;-80
2022/06/26 00:25:22;;;;;;;4.67;3.13;;;;;;;20.27;100.00;98668.97;5008535;28;20214;-80
2022/06/26 00:27:51;;;;;;;3.47;3.00;;;;;;;20.26;100.00;98671.81;5004800;28;20207;-80
2022/06/26 00:30:23;;;;;;;6.17;3.10;;;;;;;20.29;100.00;98677.72;5008249;28;20194;-80
2022/06/26 00:32:53;;;;;;;3.27;2.97;;;;;;;20.22;100.00;98679.41;5001602;28;20264;-80
2022/06/26 00:35:22;;;;;;;3.50;2.93;;;;;;;20.26;100.00;98671.81;5009839;28;20216;-79
2022/06/26 00:37:51;;;;;;;5.10;3.30;;;;;;;20.23;100.00;98680.25;5007281;28;20190;-80
2022/06/26 00:40:19;;;;;;;4.07;3.33;;;;;;;19.89;100.00;98678.63;5010218;28;20225;-80
2022/06/26 00:42:47;;;;;;;3.37;3.07;;;;;;;19.99;100.00;98684.66;5031711;28;20213;-80
2022/06/26 00:45:15;;;;;;;7.13;3.50;;;;;;;19.98;100.00;98688.34;5028211;28;20202;-80
2022/06/26 00:47:46;;;;;;;5.90;3.57;;;;;;;20.00;100.00;98696.25;5030789;28;20230;-80
2022/06/26 00:50:14;;;;;;;3.87;3.47;;;;;;;19.46;100.00;98703.91;5031190;28;20198;-80
2022/06/26 00:52:42;;;;;;;8.20;4.67;;;;;;;19.14;100.00;98761.91;5034756;28;20210;-80
2022/06/26 00:55:11;;;;;;;7.03;4.90;;;;;;;18.53;100.00;98781.72;5030979;28;20201;-80
2022/06/26 00:57:39;;;;;;;6.40;4.67;;;;;;;18.75;100.00;98774.16;5040982;27;20218;-80
2022/06/26 01:00:10;;;;;;;9.20;4.63;;;;;;;18.67;100.00;98780.31;5027685;28;20218;-79
2022/06/26 01:02:39;;;;;;;7.37;5.63;;;;;;;18.80;100.00;98769.13;5030952;28;20201;-79
2022/06/26 01:05:10;;;;;;;6.43;5.70;;;;;;;18.95;100.00;98769.38;5030796;28;20315;-79
2022/06/26 01:07:39;;;;;;;9.70;5.50;;;;;;;18.85;100.00;98772.19;5031207;28;20217;-79
2022/06/26 01:10:07;;;;;;;7.90;5.20;;;;;;;18.91;100.00;98763.47;5034578;28;20194;-80
2022/06/26 01:12:36;;;;;;;8.00;5.20;;;;;;;18.93;100.00;98782.13;5028705;28;20197;-80
2022/06/26 01:15:08;;;;;;;10.50;5.77;;;;;;;18.86;100.00;98772.03;5033901;27;20273;-80
2022/06/26 01:17:37;;;;;;;6.03;5.27;;;;;;;18.88;100.00;98777.22;5030330;28;20206;-80
2022/06/26 01:20:09;;;;;;;7.93;5.30;;;;;;;19.11;100.00;98769.47;5041426;28;20255;-80
2022/06/26 01:22:39;;;;;;;5.10;4.63;;;;;;;19.37;100.00;98758.63;5029171;28;20205;-80
2022/06/26 01:25:08;;;;;;;5.40;4.90;;;;;;;19.39;100.00;98753.91;5030798;28;20704;-80
2022/06/26 01:27:42;;;;;;;7.60;5.13;;;;;;;19.52;100.00;98758.84;5030769;28;20200;-80
2022/06/26 01:30:11;;;;;;;6.17;5.30;;;;;;;19.65;100.00;98770.81;5029467;28;20189;-80
2022/06/26 01:32:40;;;;;;;6.83;4.90;;;;;;;19.77;100.00;98757.88;5093393;28;20197;-80
2022/06/26 01:35:09;;;;;;;5.63;4.90;;;;;;;19.64;100.00;98752.16;5028585;28;20265;-80
2022/06/26 01:37:37;;;;;;;6.77;4.77;;;;;;;19.78;100.00;98761.41;5027930;28;20233;-79
2022/06/26 01:40:10;;;;;;;5.20;4.70;;;;;;;19.77;100.00;98760.56;5029039;28;20688;-80
2022/06/26 01:42:38;;;;;;;10.70;4.57;;;;;;;19.79;100.00;98749.69;5027698;28;20208;-80
2022/06/26 01:45:08;;;;;;;6.73;4.53;;;;;;;19.77;100.00;98757.03;5028802;28;20202;-80
2022/06/26 01:47:36;;;;;;;6.67;4.80;;;;;;;19.50;100.00;98759.00;5031247;28;20305;-79
2022/06/26 01:50:06;;;;;;;4.90;4.47;;;;;;;19.51;100.00;98751.78;5028634;28;20695;-80
2022/06/26 01:52:34;;;;;;;10.63;5.27;;;;;;;19.45;100.00;98748.75;5034138;28;20197;-79
2022/06/26 01:55:03;;;;;;;7.40;5.07;;;;;;;19.42;100.00;98748.25;5025037;28;20289;-80
2022/06/26 01:57:33;;;;;;;5.27;4.50;;;;;;;19.47;100.00;98745.88;5028411;28;20198;-80
2022/06/26 02:00:01;;;;;;;7.97;4.97;;;;;;;19.48;100.00;98744.88;5022678;28;20250;-79
2022/06/26 02:02:30;;;;;;;6.90;5.00;;;;;;;19.55;100.00;98737.84;5028576;28;20229;-80
2022/06/26 02:04:59;;;;;;;4.97;4.47;;;;;;;19.68;100.00;98738.22;5025135;28;20194;-80
2022/06/26 02:07:28;;;;;;;9.23;5.00;;;;;;;19.76;100.00;98737.41;5025075;28;20205;-80
2022/06/26 02:15:28;;;;;;;7.23;4.50;;;;;;;19.86;100.00;98710.34;5030100;28;20208;-80
2022/06/26 02:17:57;;;;;;;6.97;4.27;;;;;;;19.86;100.00;98708.50;5027816;28;20279;-80
2022/06/26 02:20:25;;;;;;;8.07;4.73;;;;;;;19.80;100.00;98711.88;5028154;28;20201;-80
2022/06/26 02:22:53;;;;;;;7.53;4.73;;;;;;;19.83;100.00;98708.00;5032817;28;20304;-80
2022/06/26 02:25:22;;;;;;;8.47;4.37;;;;;;;19.91;100.00;98708.00;5027110;28;20202;-80
2022/06/26 02:27:52;;;;;;;8.87;4.87;;;;;;;19.87;100.00;98703.97;5027702;28;20194;-80
2022/06/26 02:30:20;;;;;;;6.17;4.67;;;;;;;19.89;100.00;98708.19;5029677;28;20208;-80
2022/06/26 02:32:49;;;;;;;6.47;4.60;;;;;;;19.78;100.00;98715.72;5029975;28;20656;-79
2022/06/26 02:35:17;;;;;;;9.63;4.50;;;;;;;19.53;100.00;98704.94;5029518;28;20206;-80
2022/06/26 02:37:45;;;;;;;6.87;5.17;;;;;;;19.79;100.00;98722.81;5030140;28;20708;-80
2022/06/26 02:40:14;;;;;;;6.30;4.60;;;;;;;19.73;100.00;98721.63;5034274;28;20284;-80
2022/06/26 02:42:43;;;;;;;7.97;4.33;;;;;;;19.72;100.00;98717.25;5026887;28;20222;-80
2022/06/26 02:45:13;;;;;;;4.90;4.40;;;;;;;19.80;100.00;98721.78;5032356;28;20190;-80
2022/06/26 02:47:42;;;;;;;5.80;4.53;;;;;;;19.42;100.00;98734.81;5023300;28;20226;-80
2022/06/26 02:50:11;;;;;;;6.67;4.37;;;;;;;19.56;100.00;98731.50;5031282;28;20186;-80
2022/06/26 02:52:39;;;;;;;6.33;4.33;;;;;;;19.64;100.00;98734.19;5027037;28;20198;-80
2022/06/26 02:55:09;;;;;;;7.97;4.20;;;;;;;19.71;100.00;98735.22;5027947;28;20205;-80
2022/06/26 02:57:37;;;;;;;5.27;4.70;;;;;;;19.85;100.00;98744.47;5032914;28;20209;-80
2022/06/26 03:00:09;;;;;;;5.50;4.00;;;;;;;19.88;100.00;98743.28;5029535;28;20239;-81
2022/06/26 03:02:39;;;;;;;5.80;4.17;;;;;;;19.51;100.00;98735.66;5029215;28;20297;-80
2022/06/26 03:05:09;;;;;;;8.57;4.57;;;;;;;19.58;100.00;98736.69;5028374;28;20201;-80
2022/06/26 03:07:37;;;;;;;4.03;3.63;;;;;;;19.54;100.00;98741.53;5024346;28;20186;-80
2022/06/26 03:10:07;;;;;;;7.97;4.17;;;;;;;19.56;100.00;98741.41;5029835;28;20243;-80
2022/06/26 03:12:43;;;;;;;7.13;4.10;;;;;;;19.46;100.00;98736.16;5026804;28;20205;-80
2022/06/26 03:15:12;;;;;;;5.57;4.10;;;;;;;19.42;100.00;98749.09;5025179;28;20190;-80
2022/06/26 03:17:42;;;;;;;4.93;3.90;;;;;;;19.38;100.00;98747.72;5030333;28;20648;-80
2022/06/26 03:20:12;;;;;;;4.80;3.63;;;;;;;19.36;100.00;98747.03;5026494;28;20214;-80
2022/06/26 03:22:40;;;;;;;6.87;4.00;;;;;;;19.41;100.00;98747.41;5026714;28;20218;-80
2022/06/26 03:25:09;;;;;;;6.27;3.60;;;;;;;19.40;100.00;98743.03;5034177;28;20201;-80
2022/06/26 03:27:38;;;;;;;6.90;3.90;;;;;;;19.40;100.00;98744.88;5032355;28;20209;-80
2022/06/26 03:30:08;;;;;;;4.93;3.77;;;;;;;19.40;100.00;98745.72;5028929;28;20186;-80
2022/06/26 03:32:37;;;;;;;4.47;3.70;;;;;;;19.34;100.00;98751.75;5081302;28;20267;-80
2022/06/26 03:35:09;;;;;;;9.77;4.00;;;;;;;19.38;100.00;98746.88;5026900;28;20220;-80
2022/06/26 03:37:37;;;;;;;7.73;4.17;;;;;;;19.39;100.00;98740.50;5032422;28;20194;-79
2022/06/26 03:40:07;;;;;;;4.30;3.83;;;;;;;19.39;100.00;98757.44;5032337;28;20205;-80
2022/06/26 03:42:36;;;;;;;4.87;3.70;;;;;;;19.37;100.00;98767.53;5036494;28;20222;-80
2022/06/26 03:45:05;;;;;;;8.00;4.03;;;;;;;19.40;100.00;98774.44;5030627;28;20186;-80
2022/06/26 03:47:34;;;;;;;4.60;3.60;;;;;;;19.56;100.00;98779.00;5031921;28;20233;-80
2022/06/26 03:50:03;;;;;;;7.03;3.90;;;;;;;19.35;100.00;98784.81;5026672;28;20201;-80
2022/06/26 03:52:33;;;;;;;6.13;3.80;;;;;;;19.44;100.00;98787.34;5048801;27;20197;-80
2022/06/26 03:55:01;;;;;;;5.90;3.63;;;;;;;19.49;100.00;98792.22;5046316;27;20212;-80
2022/06/26 03:57:30;;;;;;;4.07;3.63;;;;;;;19.53;100.00;98782.84;5032163;28;20660;-80
2022/06/26 03:59:58;;;;;;;5.27;3.60;;;;;;;19.69;100.00;98777.56;5030813;28;20277;-80
2022/06/26 04:02:30;;;;;;;5.67;3.47;;;;;;;19.32;100.00;98777.94;5031877;28;20231;-80
2022/06/26 04:04:58;;;;;;;7.57;3.50;;;;;;;19.46;100.00;98776.44;5031957;28;20186;-79
2022/06/26 04:07:26;;;;;;;5.53;3.57;;;;;;;19.54;100.00;98778.31;5031860;28;20206;-80
2022/06/26 04:09:56;;;;;;;4.97;3.50;;;;;;;19.60;100.00;98769.66;5038652;28;20277;-80
2022/06/26 04:12:24;;;;;;;4.50;3.90;;;;;;;19.60;100.00;98777.69;5031488;28;20269;-80
2022/06/26 04:14:53;;;;;;;4.57;3.53;;;;;;;19.58;100.00;98788.59;5029289;28;20194;-80
2022/06/26 04:17:21;;;;;;;7.00;4.37;;;;;;;19.58;100.00;98790.44;5025570;28;20194;-80
2022/06/26 04:19:50;;;;;;;6.73;3.70;;;;;;;19.66;100.00;98788.59;5026339;28;20212;-80
2022/06/26 04:22:18;;;;;;;5.10;3.87;;;;;;;19.77;100.00;98792.00;5029094;28;20228;-80
2022/06/26 04:24:47;;;;;;;5.40;3.50;;;;;;;19.91;100.00;98788.66;5030217;28;20202;-80
2022/06/26 04:27:16;;;;;;;6.37;4.10;;;;;;;19.93;100.00;98808.16;5031601;28;20243;-80
2022/06/26 04:29:45;;;;;;;5.33;3.90;;;;;;;19.77;100.00;98800.06;5026711;28;20280;-80
2022/06/26 04:32:13;;;;;;;4.00;3.70;;;;;;;19.69;100.00;98809.81;5032860;28;20613;-80
2022/06/26 04:34:42;;;;;;;5.23;3.70;;;;;;;19.76;100.00;98809.97;5035667;27;20190;-80
2022/06/26 04:37:11;;;;;;;5.10;3.57;;;;;;;19.86;100.00;98805.28;5031064;28;20207;-80
2022/06/26 04:39:39;;;;;;;4.70;4.23;;;;;;;19.98;100.00;98806.66;5027657;28;20329;-80
2022/06/26 04:42:07;;;;;;;6.90;4.20;;;;;;;20.07;100.00;98810.16;5031275;28;20201;-80
2022/06/26 04:44:37;;;;;;;4.77;3.73;;;;;;;20.21;100.00;98816.75;5024514;28;20206;-79
2022/06/26 04:47:05;;;;;;;7.57;3.67;;;;;;;20.06;100.00;98813.03;5028559;28;20236;-80
2022/06/26 04:49:33;;;;;;;6.23;3.80;;;;;;;20.22;100.00;98810.34;5037706;27;20235;-80
2022/06/26 04:52:02;;;;;;;7.37;3.93;;;;;;;20.29;100.00;98814.91;5027242;28;20250;-80
2022/06/26 04:54:30;;;;;;;3.73;3.43;;;;;;;20.26;100.00;98825.13;5031166;28;20277;-80
2022/06/26 04:56:58;;;;;;;3.80;3.43;;;;;;;20.39;100.00;98819.25;5026472;28;20193;-80
2022/06/26 04:59:26;;;;;;;5.40;4.13;;;;;;;20.48;100.00;98824.50;5028149;28;20208;-80
2022/06/26 05:01:56;;;;;;;6.73;3.93;;;;;;;20.15;100.00;98828.16;5031128;28;20186;-80
2022/06/26 05:04:25;;;;;;;7.27;3.90;;;;;;;20.43;100.00;98826.84;5035544;28;20218;-80
2022/06/26 05:06:54;;;;;;;6.57;3.30;;;;;;;20.55;100.00;98830.88;5031093;28;20202;-80
2022/06/26 05:09:23;;;;;;;6.30;4.03;;;;;;;20.61;100.00;98832.03;5028829;28;20224;-80
2022/06/26 05:11:51;;;;;;;9.93;3.90;;;;;;;20.68;100.00;98832.22;5034084;28;20204;-81
2022/06/26 05:14:20;;;;;;;5.43;3.70;;;;;;;20.59;100.00;98839.47;5029583;28;20197;-80
2022/06/26 05:16:48;;;;;;;4.43;3.60;;;;;;;20.68;100.00;98846.50;5030976;28;20190;-80
2022/06/26 05:19:18;;;;;;;5.97;3.30;;;;;;;20.61;100.00;98850.03;5035462;27;20197;-80
2022/06/26 05:21:52;;;;;;;5.63;4.10;;;;;;;20.58;100.00;98851.25;5030518;28;20186;-80
2022/06/26 05:24:21;;;;;;;5.07;3.88;;;;;;;20.49;100.00;98838.78;5026766;28;20248;-80
2022/06/26 05:26:49;;;;;;;6.07;3.93;;;;;;;20.35;100.00;98850.19;5024583;28;20198;-80
2022/06/26 05:29:17;;;;;;;4.47;4.07;;;;;;;20.40;100.00;98851.38;5035318;27;20637;-80
2022/06/26 05:31:45;;;;;;;6.43;4.37;;;;;;;20.23;100.00;98849.69;5029636;28;20198;-80
2022/06/26 05:34:14;;;;;;;6.60;4.07;;;;;;;20.30;100.00;98848.84;5030637;28;20197;-80
2022/06/26 05:36:46;;;;;;;7.13;4.53;;;;;;;20.32;100.00;98855.91;5034810;28;20276;-80
2022/06/26 05:39:15;;;;;;;4.73;4.10;;;;;;;20.25;100.00;98867.31;5033825;28;20200;-80
2022/06/26 05:41:44;;;;;;;5.87;4.60;;;;;;;20.37;100.00;98859.78;5027817;28;20265;-80
2022/06/26 05:44:12;;;;;;;8.40;4.10;;;;;;;20.32;100.00;98856.75;5032768;27;20221;-80
2022/06/26 05:46:41;;;;;;;5.60;4.67;;;;;;;20.23;100.00;98849.69;5026849;28;20707;-80
2022/06/26 05:49:10;;;;;;;8.57;4.33;;;;;;;20.42;100.00;98853.88;5030060;28;20197;-80
2022/06/26 05:51:38;;;;;;;4.67;4.37;;;;;;;20.48;100.00;98856.78;5028506;28;20196;-80
2022/06/26 05:54:08;;;;;;;4.73;4.33;;;;;;;20.53;100.00;98864.34;5029936;28;20197;-80
2022/06/26 05:56:36;;;;;;;8.40;4.50;;;;;;;20.45;100.00;98856.28;5029756;28;20209;-80
2022/06/26 05:59:04;;;;;;;8.97;5.17;;;;;;;20.40;100.00;98870.22;5029300;28;20186;-80
2022/06/26 06:01:33;;;;;;;8.33;4.63;;;;;;;20.51;100.00;98872.59;5030125;28;20244;-80
2022/06/26 06:04:01;;;;;;;5.53;4.38;;;;;;;20.41;100.00;98874.56;4992976;28;20218;-80
2022/06/26 06:06:29;;;;;;;5.50;4.43;;;;;;;20.62;100.00;98879.47;5030103;28;20217;-80
2022/06/26 06:08:58;;;;;;;5.43;4.73;;;;;;;20.68;100.00;98875.28;5034950;28;20220;-80
2022/06/26 06:11:28;;;;;;;4.93;3.73;;;;;;;20.82;100.00;98870.03;5027898;28;20192;-80
2022/06/26 06:13:56;;;;;;;7.30;3.63;;;;;;;21.02;100.00;98857.03;5042864;27;20198;-80
2022/06/26 06:16:24;;;;;;;6.10;3.20;;;;;;;21.08;100.00;98850.97;5030387;28;20660;-80
2022/06/26 06:18:52;;;;;;;4.45;3.60;;;;;;;20.39;100.00;98846.16;5023862;28;20209;-80
2022/06/26 06:21:20;;;;;;;7.50;3.45;;;;;;;20.44;100.00;98841.13;5028647;28;20201;-80
2022/06/26 06:23:48;;;;;;;5.40;2.57;;;;;;;20.45;100.00;98842.81;5029806;28;20388;-80
2022/06/26 06:26:17;;;;;;;5.72;2.53;;;;;;;20.76;100.00;98837.59;5027794;28;20189;-80
2022/06/26 06:28:46;;;;;;;3.80;2.60;;;;;;;21.17;100.00;98840.19;5023263;28;20202;-81
2022/06/26 06:31:15;;;;;;;3.42;2.30;;;;;;;21.47;100.00;98833.19;5030085;28;20205;-80
2022/06/26 06:33:43;;;;;;;3.38;2.05;;;;;;;21.53;100.00;98841.41;5027338;28;20288;-80
2022/06/26 06:36:11;;;;;;;2.28;1.63;;;;;;;21.32;100.00;98855.44;5029826;28;20201;-80
2022/06/26 06:38:40;;;;;;;4.95;2.72;;;;;;;21.42;100.00;98874.97;5030046;28;20190;-80
2022/06/26 06:41:10;;;;;;;4.35;3.80;;;;;;;21.75;100.00;98872.13;5029895;28;20198;-80
2022/06/26 06:43:38;;;;;;;3.93;3.20;;;;;;;21.53;100.00;98878.31;5028551;28;20237;-80
2022/06/26 06:46:08;;;;;;;4.65;3.45;;;;;;;21.64;100.00;98881.44;5024545;28;20209;-80
2022/06/26 06:48:36;;;;;;;6.13;3.50;;;;;;;21.64;100.00;98881.44;5029784;28;20197;-80
2022/06/26 06:51:06;;;;;;;3.42;2.58;;;;;;;21.78;100.00;98874.47;5033210;28;20308;-80
2022/06/26 06:53:34;;;;;;;4.85;3.13;;;;;;;21.64;100.00;98884.16;5030806;28;20262;-80
2022/06/26 06:56:02;;;;;;;3.85;3.00;;;;;;;21.83;100.00;98882.03;5026852;28;20202;-80
2022/06/26 06:58:30;;;;;;;3.33;2.83;;;;;;;21.96;100.00;98893.06;5029786;28;20194;-81
2022/06/26 07:00:58;;;;;;;10.00;3.13;;;;;;;21.96;100.00;98885.81;5033068;28;20208;-81
2022/06/26 07:03:28;;;;;;;7.03;3.40;;;;;;;21.94;100.00;98897.81;5027474;28;20205;-80
2022/06/26 07:05:56;;;;;;;3.60;3.15;;;;;;;21.70;100.00;98910.38;5030834;28;20202;-80
2022/06/26 07:08:24;;;;;;;4.68;3.20;;;;;;;21.88;100.00;98917.38;5032653;28;20653;-80
2022/06/26 07:10:54;;;;;;;5.65;2.80;;;;;;;22.00;100.00;98913.28;5028115;28;20198;-80
2022/06/26 07:13:22;;;;;;;2.97;2.60;;;;;;;21.98;100.00;98909.91;5029385;28;20205;-80
2022/06/26 07:15:51;;;;;;;5.55;3.03;;;;;;;22.18;100.00;98919.28;5027930;28;20214;-80
2022/06/26 07:18:22;;;;;;;3.97;2.30;;;;;;;22.41;100.00;98913.91;5031702;28;20225;-81
2022/06/26 07:20:51;;;;;;;8.38;3.28;;;;;;;22.56;100.00;98908.53;5032735;28;20194;-80
2022/06/26 07:23:19;;;;;;;3.00;2.50;;;;;;;22.47;100.00;98915.88;5029979;28;20213;-80
2022/06/26 07:25:50;;;;;;;1.95;1.70;;;;;;;22.10;100.00;98921.16;5038982;27;20209;-80
2022/06/26 07:28:18;;;;;;;1.48;1.20;;;;;;;22.40;100.00;98922.19;5032161;28;20209;-80
2022/06/26 07:30:46;;;;;;;2.90;1.63;;;;;;;22.41;100.00;98916.59;5030240;28;20201;-80
2022/06/26 07:35:58;;;;;;;3.75;1.50;;;;;;;22.02;100.00;98921.22;5032342;28;20247;-79
2022/06/26 07:38:29;;;;;;;1.33;1.13;;;;;;;22.49;100.00;98921.94;5032689;28;20202;-80
2022/06/26 07:40:58;;;;;;;1.92;1.08;;;;;;;22.77;100.00;98918.66;5031881;28;20205;-79
2022/06/26 07:43:26;;;;;;;1.90;1.10;;;;;;;22.92;100.00;98918.75;5026834;28;20206;-79
2022/06/26 07:45:55;;;;;;;2.35;1.05;;;;;;;22.53;100.00;98919.72;5035717;28;20293;-79
2022/06/26 07:48:23;;;;;;;1.00;0.90;;;;;;;22.83;100.00;98918.78;5033739;28;20217;-79
2022/06/26 07:50:52;;;;;;;1.00;1.00;;;;;;;23.14;100.00;98912.44;5035673;28;20238;-79
2022/06/26 07:53:22;;;;;;;1.67;1.10;;;;;;;22.93;100.00;98918.56;5030692;28;20216;-79
2022/06/26 07:55:50;;;;;;;1.33;1.20;;;;;;;23.23;100.00;98919.44;5032672;28;20202;-80
2022/06/26 07:58:18;;;;;;;1.25;0.90;;;;;;;23.37;100.00;98923.19;5029677;28;20201;-79
2022/06/26 08:00:47;;;;;;;1.80;1.30;;;;;;;23.17;100.00;98920.19;5034118;28;20193;-80
2022/06/26 08:03:15;;;;;;;1.83;1.30;;;;;;;22.61;100.00;98932.31;5033399;28;20198;-80
2022/06/26 08:05:45;;;;;;;1.20;1.10;;;;;;;22.56;100.00;98932.84;5033347;28;20321;-80
2022/06/26 08:08:13;;;;;;;2.33;1.08;;;;;;;22.77;100.00;98930.31;5032529;28;20206;-80
2022/06/26 08:10:43;;;;;;;4.07;1.20;;;;;;;23.04;100.00;98944.28;5033180;28;20202;-80
2022/06/26 08:13:11;;;;;;;2.05;1.15;;;;;;;22.86;100.00;98939.22;5027625;28;20216;-79
2022/06/26 08:15:39;;;;;;;1.33;1.23;;;;;;;23.30;100.00;98931.19;5035614;28;20529;-80
2022/06/26 08:18:09;;;;;;;2.00;1.08;;;;;;;23.47;100.00;98926.47;5029872;28;20202;-80
2022/06/26 08:20:37;;;;;;;1.50;1.20;;;;;;;23.30;100.00;98924.97;5034658;28;20193;-80
2022/06/26 08:23:05;;;;;;;2.17;1.20;;;;;;;23.92;100.00;98929.97;5033370;28;20210;-79
2022/06/26 08:25:34;;;;;;;1.65;1.17;;;;;;;24.19;100.00;98936.56;5031772;28;20214;-80
2022/06/26 08:28:04;;;;;;;1.10;1.02;;;;;;;24.25;100.00;98925.81;5031498;28;20204;-80
2022/06/26 08:30:33;;;;;;;2.15;1.13;;;;;;;24.45;100.00;98933.34;5029940;28;20648;-80
2022/06/26 08:33:02;;;;;;;2.78;1.58;;;;;;;24.61;100.00;98922.25;5030272;28;20186;-79
2022/06/26 08:35:30;;;;;;;1.20;1.08;;;;;;;24.59;100.00;98935.13;5031693;28;20310;-80
2022/06/26 08:37:58;;;;;;;1.13;0.95;;;;;;;24.39;100.00;98925.97;5031618;28;20206;-80
2022/06/26 08:40:28;;;;;;;1.65;0.98;;;;;;;24.59;100.00;98929.72;5033903;28;20202;-80
2022/06/26 08:42:57;;;;;;;2.92;1.10;;;;;;;24.33;100.00;98929.47;5030068;28;20224;-80
2022/06/26 08:45:29;;;;;;;1.70;0.95;;;;;;;24.36;100.00;98937.19;5028381;28;20217;-79
2022/06/26 08:47:59;;;;;;;1.70;1.23;;;;;;;23.58;100.00;98939.50;5026737;28;20233;-79
2022/06/26 08:50:28;;;;;;;3.85;1.23;;;;;;;23.59;100.00;98937.69;5030914;28;20190;-79
2022/06/26 08:52:59;;;;;;;1.98;1.30;;;;;;;23.77;100.00;98940.84;5031346;28;20194;-79
2022/06/26 08:55:28;;;;;;;1.40;1.10;;;;;;;23.55;100.00;98941.75;5031096;28;20206;-80
2022/06/26 08:57:57;;;;;;;1.33;1.10;;;;;;;23.65;100.00;98939.66;5027327;28;20217;-80
2022/06/26 09:00:27;;;;;;;1.67;1.20;;;;;;;23.95;100.00;98935.88;5033479;28;20209;-79
2022/06/26 09:02:57;;;;;;;1.52;1.10;;;;;;;24.21;100.00;98937.19;5030146;28;20296;-80
2022/06/26 09:05:26;;;;;;;1.30;1.20;;;;;;;24.33;100.00;98946.56;5029646;28;20216;-80
2022/06/26 09:07:58;;;;;;;1.55;1.10;;;;;;;24.74;100.00;98949.47;5078119;28;20209;-80
2022/06/26 09:10:28;;;;;;;1.15;1.05;;;;;;;23.86;100.00;98961.34;5031704;28;20281;-79
2022/06/26 09:12:58;;;;;;;1.30;1.20;;;;;;;24.38;100.00;98948.66;5034498;28;20212;-80
2022/06/26 09:15:28;;;;;;;1.20;1.10;;;;;;;24.79;100.00;98948.88;5029635;28;20194;-80
2022/06/26 09:18:01;;;;;;;1.40;1.30;;;;;;;24.93;100.00;98957.97;5029803;28;20258;-80
2022/06/26 09:20:30;;;;;;;1.30;1.20;;;;;;;25.03;100.00;98956.63;5034128;28;20206;-80
2022/06/26 09:23:00;;;;;;;2.25;1.40;;;;;;;25.14;100.00;98959.84;5029801;28;20190;-80
2022/06/26 09:25:36;;;;;;;2.08;1.38;;;;;;;25.22;100.00;98960.53;5030593;28;20218;-80
2022/06/26 09:28:07;;;;;;;1.20;1.02;;;;;;;25.40;100.00;98955.44;5029417;28;20193;-79
2022/06/26 09:30:46;;;;;;;1.23;1.10;;;;;;;25.11;100.00;98950.22;5028454;28;20197;-80
2022/06/26 09:33:14;;;;;;;1.23;1.10;;;;;;;25.29;100.00;98955.16;5030796;28;20190;-79
2022/06/26 09:35:43;;;;;;;1.20;1.08;;;;;;;25.54;100.00;98953.66;5025710;28;20189;-80
2022/06/26 09:38:11;;;;;;;1.77;1.00;;;;;;;25.55;100.00;98955.31;5030471;28;20614;-80
2022/06/26 09:40:46;;;;;;;1.10;1.00;;;;;;;25.86;100.00;98954.06;5027793;28;20202;-80
2022/06/26 09:43:24;;;;;;;1.00;1.00;;;;;;;26.03;100.00;98954.56;5032532;28;20200;-80
2022/06/26 09:45:55;;;;;;;2.00;1.17;;;;;;;26.11;100.00;98954.38;4999876;28;20213;-80
2022/06/26 09:48:24;;;;;;;1.23;0.98;;;;;;;25.72;100.00;98950.44;5023879;28;20229;-79
2022/06/26 09:50:54;;;;;;;1.67;1.00;;;;;;;25.24;100.00;98953.03;5034059;28;20201;-80
2022/06/26 09:53:25;;;;;;;1.80;1.20;;;;;;;26.01;100.00;98949.34;5033716;28;20190;-79
2022/06/26 09:55:55;;;;;;;1.58;1.13;;;;;;;25.47;100.00;98947.34;5025127;28;20198;-78
2022/06/26 09:58:27;;;;;;;2.10;1.00;;;;;;;25.98;100.00;98957.06;5028844;28;20282;-79
2022/06/26 10:06:33;;;;;;;2.97;1.23;;;;;;;25.76;100.00;98948.16;5030022;28;20283;-80
2022/06/26 10:09:03;;;;;;;1.13;1.08;;;;;;;26.20;100.00;98951.28;5029745;28;20197;-80
2022/06/26 10:11:33;;;;;;;1.85;1.23;;;;;;;26.53;98.13;98945.13;5043436;27;20192;-81
2022/06/26 10:14:06;;;;;;;1.30;1.00;;;;;;;26.67;99.11;98946.84;5026684;28;20217;-79
2022/06/26 10:17:09;;;;;;;2.72;1.25;;;;;;;27.22;96.35;98931.22;5029839;28;20198;-81
2022/06/26 10:19:45;;;;;;;3.55;1.20;;;;;;;27.49;93.35;98934.69;5028678;28;20190;-79
2022/06/26 10:22:13;;;;;;;1.70;1.38;;;;;;;27.87;93.78;98939.44;5030239;28;20197;-79
2022/06/26 10:24:51;;;;;;;1.10;1.00;;;;;;;27.71;94.11;98929.88;5030222;28;20200;-79
2022/06/26 10:27:25;;;;;;;1.50;1.00;;;;;;;27.12;98.21;98935.38;5029944;28;20228;-81
2022/06/26 10:30:08;;;;;;;1.67;0.95;;;;;;;27.83;94.35;98935.50;5035075;28;20201;-79
2022/06/26 10:32:39;;;;;;;1.25;0.80;;;;;;;27.97;87.37;98933.53;5030213;28;20204;-77
2022/06/26 10:35:09;;;;;;;1.27;0.90;;;;;;;27.76;89.84;98935.50;5094973;28;20195;-79
2022/06/26 10:37:42;;;;;;;1.10;0.85;;;;;;;28.07;87.61;98929.31;5092224;28;20188;-81
2022/06/26 10:42:52;;;;;;;1.88;0.90;;;;;;;28.41;85.49;98936.28;5087048;28;20187;-79
2022/06/26 10:43:03;;;;;;;1.15;1.00;;;;;;;28.24;85.46;98933.22;5090561;28;20199;-80
2022/06/26 10:45:33;;;;;;;1.33;1.10;;;;;;;28.97;81.83;98930.06;5092435;28;20269;-80
2022/06/26 10:48:07;;;;;;;2.95;1.00;;;;;;;29.03;81.14;98926.44;5090390;28;20334;-80
2022/06/26 10:50:37;;;;;;;2.67;2.40;;;;;;;28.91;80.12;98924.66;5092437;28;20191;-80
2022/06/26 10:53:15;;;;;;;1.25;1.00;;;;;;;29.30;77.03;98927.03;5069992;28;20284;-80
2022/06/26 10:55:46;;;;;;;1.65;0.80;;;;;;;29.43;77.83;98923.31;5033215;28;20720;-80
2022/06/26 10:58:21;;;;;;;0.98;0.98;;;;;;;29.39;76.84;98922.13;5031970;28;20197;-80
2022/06/26 11:00:50;;;;;;;0.82;0.80;;;;;;;28.66;76.82;98927.31;5033330;28;20197;-80
2022/06/26 11:03:21;;;;;;;1.20;0.80;;;;;;;28.98;73.90;98920.00;5030362;28;20306;-80
2022/06/26 11:05:58;;;;;;;1.75;0.90;;;;;;;28.84;72.12;98918.38;5032976;28;20260;-80
2022/06/26 11:08:30;;;;;;;0.80;0.80;;;;;;;28.91;69.73;98921.94;5032630;28;20209;-80
2022/06/26 11:11:04;;;;;;;1.23;0.80;;;;;;;28.47;69.04;98927.25;5032519;28;20213;-80
2022/06/26 11:13:34;;;;;;;0.73;0.70;;;;;;;28.77;69.74;98921.19;5029958;28;20322;-80
2022/06/26 11:16:03;;;;;;;0.85;0.70;;;;;;;27.75;75.32;98919.38;5032779;28;20201;-80
2022/06/26 11:18:37;;;;;;;0.77;0.73;;;;;;;28.66;69.53;98930.03;5027998;28;20284;-80
2022/06/26 11:21:05;;;;;;;2.25;0.80;;;;;;;28.61;68.89;98910.81;5029625;28;20209;-80
2022/06/26 11:23:38;;;;;;;0.93;0.70;;;;;;;29.28;64.28;98923.69;5033020;28;20209;-81
2022/06/26 11:26:08;;;;;;;1.00;0.60;;;;;;;29.99;61.59;98916.00;5026793;28;20217;-80
2022/06/26 11:28:39;;;;;;;0.70;0.70;;;;;;;29.77;64.55;98915.66;5027391;28;20198;-80
2022/06/26 11:31:10;;;;;;;0.85;0.70;;;;;;;30.38;58.71;98920.13;5032702;28;20301;-79
2022/06/26 11:33:41;;;;;;;0.60;0.60;;;;;;;29.73;59.61;98904.34;5032947;28;20194;-80
2022/06/26 11:36:10;;;;;;;1.95;0.70;;;;;;;30.20;60.39;98910.06;5031001;28;20201;-80
2022/06/26 11:38:39;;;;;;;0.93;0.82;;;;;;;29.88;59.44;98912.97;5028629;28;20206;-80
2022/06/26 11:41:09;;;;;;;1.05;0.80;;;;;;;29.08;63.94;98909.41;5030910;28;20209;-80
2022/06/26 11:43:45;;;;;;;0.82;0.70;;;;;;;29.15;64.79;98914.81;5027878;28;20227;-80
2022/06/26 11:46:14;;;;;;;0.80;0.80;;;;;;;28.95;67.82;98917.69;5031296;28;20266;-79
2022/06/26 11:48:44;;;;;;;0.80;0.70;;;;;;;29.36;67.60;98912.50;5028765;28;20205;-80
2022/06/26 11:51:16;;;;;;;1.67;0.70;;;;;;;28.58;66.02;98906.63;5027827;28;20197;-80